createdAt,value
2023-04-10T00:02:25.842Z,9.70
2023-04-10T00:04:53.948Z,10.02
2023-04-10T00:07:23.193Z,9.98
2023-04-10T00:09:51.096Z,9.57
2023-04-10T00:12:19.107Z,9.40
2023-04-10T00:14:47.024Z,9.60
2023-04-10T00:17:14.926Z,9.90
2023-04-10T00:19:42.796Z,10.27
2023-04-10T00:22:10.645Z,9.82
2023-04-10T00:24:39.832Z,9.45
2023-04-10T00:27:07.725Z,9.57
2023-04-10T00:29:35.686Z,9.77
2023-04-10T00:32:03.672Z,9.07
2023-04-10T00:34:31.709Z,9.05
2023-04-10T00:37:00.414Z,10.13
2023-04-10T00:39:28.883Z,10.15
2023-04-10T00:41:58.601Z,9.70
2023-04-10T00:44:26.633Z,9.65
2023-04-10T00:46:54.624Z,9.75
2023-04-10T00:49:22.524Z,9.98
2023-04-10T00:51:50.988Z,9.48
2023-04-10T00:54:19.456Z,9.10
2023-04-10T00:56:48.766Z,9.32
2023-04-10T00:59:18.058Z,9.77
2023-04-10T01:01:46.031Z,10.07
2023-04-10T01:04:15.140Z,9.05
2023-04-10T01:06:54.314Z,9.48
2023-04-10T01:09:34.976Z,9.27
2023-04-10T01:12:10.822Z,9.45
2023-04-10T01:14:50.218Z,9.48
2023-04-10T01:17:22.776Z,9.52
2023-04-10T01:20:02.839Z,9.95
2023-04-10T01:22:42.691Z,10.60
2023-04-10T01:25:24.755Z,10.02
2023-04-10T01:28:08.019Z,10.75
2023-04-10T01:30:38.560Z,9.40
2023-04-10T01:33:10.446Z,9.80
2023-04-10T01:35:39.632Z,9.50
2023-04-10T01:38:09.299Z,9.82
2023-04-10T01:40:42.182Z,11.65
2023-04-10T01:43:12.631Z,9.85
2023-04-10T01:45:52.692Z,9.50
2023-04-10T01:48:21.703Z,9.00
2023-04-10T01:50:50.011Z,9.23
2023-04-10T01:53:18.709Z,8.93
2023-04-10T01:55:47.318Z,8.77
2023-04-10T01:58:16.434Z,8.57
2023-04-10T02:00:44.992Z,8.90
2023-04-10T02:03:16.347Z,8.88
2023-04-10T02:05:55.980Z,9.20
2023-04-10T02:08:32.147Z,8.90
2023-04-10T02:11:09.524Z,8.85
2023-04-10T02:13:41.690Z,8.80
2023-04-10T02:16:11.489Z,8.63
2023-04-10T02:18:43.126Z,8.73
2023-04-10T02:21:11.585Z,8.77
2023-04-10T02:23:42.418Z,8.95
2023-04-10T02:26:10.942Z,9.50
2023-04-10T02:28:39.548Z,9.20
2023-04-10T02:31:08.317Z,8.35
2023-04-10T02:33:36.554Z,8.48
2023-04-10T02:36:06.595Z,8.63
2023-04-10T02:38:34.517Z,8.80
2023-04-10T02:41:02.563Z,8.32
2023-04-10T02:43:30.569Z,8.80
2023-04-10T02:45:59.855Z,8.75
2023-04-10T02:48:30.263Z,8.48
2023-04-10T02:51:02.240Z,8.75
2023-04-10T02:53:31.456Z,9.10
2023-04-10T02:56:02.293Z,8.40
2023-04-10T02:58:31.537Z,8.15
2023-04-10T03:01:00.516Z,8.75
2023-04-10T03:03:43.579Z,9.32
2023-04-10T03:06:12.374Z,8.70
2023-04-10T03:08:43.587Z,8.88
2023-04-10T03:11:12.500Z,8.85
2023-04-10T03:13:40.608Z,8.70
2023-04-10T03:16:09.010Z,9.30
2023-04-10T03:18:37.144Z,8.53
2023-04-10T03:21:05.655Z,9.02
2023-04-10T03:23:33.568Z,9.15
2023-04-10T03:26:04.557Z,8.88
2023-04-10T03:28:37.772Z,9.63
2023-04-10T03:31:06.408Z,8.85
2023-04-10T03:33:36.876Z,9.50
2023-04-10T03:36:05.319Z,9.95
2023-04-10T03:38:34.521Z,8.88
2023-04-10T03:41:03.787Z,9.60
2023-04-10T03:43:33.502Z,9.73
2023-04-10T03:46:03.503Z,9.82
2023-04-10T03:48:32.232Z,9.00
2023-04-10T03:51:00.306Z,10.25
2023-04-10T03:53:28.292Z,9.93
2023-04-10T03:55:57.460Z,9.93
2023-04-10T03:58:27.697Z,10.00
2023-04-10T04:00:57.332Z,9.93
2023-04-10T04:03:33.534Z,10.52
2023-04-10T04:06:01.514Z,10.20
2023-04-10T04:08:29.409Z,9.95
2023-04-10T04:11:08.771Z,9.77
2023-04-10T04:13:54.259Z,10.30
2023-04-10T04:16:36.298Z,10.05
2023-04-10T04:19:13.716Z,10.35
2023-04-10T04:21:52.128Z,9.95
2023-04-10T04:24:26.732Z,10.35
2023-04-10T04:27:03.664Z,11.70
2023-04-10T04:29:50.849Z,10.57
2023-04-10T04:32:57.491Z,10.18
2023-04-10T04:35:36.746Z,10.70
2023-04-10T04:38:23.315Z,10.77
2023-04-10T04:41:01.600Z,10.53
2023-04-10T04:43:45.387Z,10.27
2023-04-10T04:46:23.833Z,11.23
2023-04-10T04:49:12.015Z,10.88
2023-04-10T04:51:49.520Z,11.52
2023-04-10T04:54:40.406Z,10.52
2023-04-10T04:57:34.184Z,10.95
2023-04-10T05:00:09.478Z,10.45
2023-04-10T05:02:52.700Z,10.70
2023-04-10T05:05:37.154Z,10.75
2023-04-10T05:08:31.299Z,11.18
2023-04-10T05:11:07.142Z,10.55
2023-04-10T05:13:41.477Z,11.77
2023-04-10T05:16:23.896Z,11.00
2023-04-10T05:19:13.409Z,11.27
2023-04-10T05:22:00.250Z,10.93
2023-04-10T05:24:55.087Z,10.55
2023-04-10T05:27:27.213Z,10.52
2023-04-10T05:30:14.232Z,10.15
2023-04-10T05:32:45.974Z,10.15
2023-04-10T05:35:44.697Z,10.68
2023-04-10T05:38:25.500Z,10.57
2023-04-10T05:41:28.942Z,10.15
2023-04-10T05:44:05.274Z,10.55
2023-04-10T05:46:55.783Z,10.10
2023-04-10T05:49:42.424Z,9.80
2023-04-10T05:52:20.680Z,10.10
2023-04-10T05:54:52.016Z,10.45
2023-04-10T05:57:38.348Z,9.68
2023-04-10T06:00:24.444Z,10.10
2023-04-10T06:03:31.643Z,10.10
2023-04-10T06:06:03.376Z,10.48
2023-04-10T06:08:34.681Z,9.98
2023-04-10T06:11:02.753Z,10.25
2023-04-10T06:13:33.310Z,9.88
2023-04-10T06:16:02.765Z,10.63
2023-04-10T06:18:31.940Z,9.55
2023-04-10T06:21:01.768Z,9.95
2023-04-10T06:23:29.660Z,9.60
2023-04-10T06:25:59.068Z,10.15
2023-04-10T06:28:27.018Z,9.55
2023-04-10T06:30:58.580Z,9.15
2023-04-10T06:33:32.260Z,10.32
2023-04-10T06:36:01.185Z,9.32
2023-04-10T06:38:30.336Z,9.05
2023-04-10T06:40:59.581Z,8.70
2023-04-10T06:43:27.937Z,8.85
2023-04-10T06:45:55.918Z,9.37
2023-04-10T06:48:23.828Z,9.10
2023-04-10T06:50:51.731Z,9.43
2023-04-10T06:53:19.660Z,9.13
2023-04-10T06:55:47.809Z,9.10
2023-04-10T06:58:17.503Z,9.02
2023-04-10T07:00:45.378Z,8.40
2023-04-10T07:03:13.253Z,8.70
2023-04-10T07:05:42.330Z,9.25
2023-04-10T07:08:10.492Z,8.57
2023-04-10T07:10:38.332Z,8.82
2023-04-10T07:13:06.203Z,8.73
2023-04-10T07:15:35.525Z,8.13
2023-04-10T07:18:03.598Z,8.65
2023-04-10T07:20:32.153Z,8.88
2023-04-10T07:23:00.334Z,9.63
2023-04-10T07:25:28.234Z,8.23
2023-04-10T07:27:56.091Z,8.40
2023-04-10T07:30:23.941Z,8.20
2023-04-10T07:32:53.413Z,10.60
2023-04-10T07:35:21.847Z,8.40
2023-04-10T07:37:52.541Z,10.02
2023-04-10T07:40:20.402Z,8.30
2023-04-10T07:42:48.342Z,8.07
2023-04-10T07:45:16.394Z,7.88
2023-04-10T07:47:44.383Z,7.75
2023-04-10T07:50:13.592Z,8.30
2023-04-10T07:52:41.489Z,8.02
2023-04-10T07:55:09.966Z,8.02
2023-04-10T07:57:37.894Z,9.90
2023-04-10T08:00:07.202Z,9.07
2023-04-10T08:02:41.586Z,8.55
2023-04-10T08:05:10.170Z,8.23
2023-04-10T08:07:39.368Z,7.97
2023-04-10T08:10:08.103Z,8.35
2023-04-10T08:12:36.076Z,7.47
2023-04-10T08:15:04.176Z,8.18
2023-04-10T08:17:32.128Z,7.80
2023-04-10T08:20:00.062Z,7.75
2023-04-10T08:22:27.957Z,9.57
2023-04-10T08:24:57.348Z,7.82
2023-04-10T08:27:25.354Z,7.53
2023-04-10T08:29:53.225Z,9.45
2023-04-10T08:32:21.240Z,7.65
2023-04-10T08:34:51.204Z,7.10
2023-04-10T08:37:19.787Z,7.30
2023-04-10T08:39:47.845Z,7.43
2023-04-10T08:42:17.100Z,7.93
2023-04-10T08:44:45.825Z,7.35
2023-04-10T08:47:15.432Z,6.63
2023-04-10T08:49:49.357Z,7.22
2023-04-10T08:52:22.399Z,7.07
2023-04-10T08:54:54.648Z,7.25
2023-04-10T08:57:24.421Z,7.50
2023-04-10T08:59:52.880Z,7.07
2023-04-10T09:02:21.757Z,6.93
2023-04-10T09:04:51.797Z,6.95
2023-04-10T09:07:20.168Z,6.90
2023-04-10T09:09:48.201Z,7.30
2023-04-10T09:12:17.168Z,7.10
2023-04-10T09:14:48.515Z,6.45
2023-04-10T09:17:18.231Z,7.88
2023-04-10T09:19:47.095Z,6.03
2023-04-10T09:22:16.230Z,6.38
2023-04-10T09:24:45.742Z,6.63
2023-04-10T09:27:29.198Z,6.20
2023-04-10T09:29:58.641Z,6.67
2023-04-10T09:32:40.625Z,6.88
2023-04-10T09:35:09.784Z,8.00
2023-04-10T09:37:38.224Z,6.90
2023-04-10T09:40:07.254Z,7.35
2023-04-10T09:42:37.550Z,7.40
2023-04-10T09:45:07.860Z,6.18
2023-04-10T09:47:36.195Z,6.70
2023-04-10T09:50:04.310Z,5.60
2023-04-10T09:52:33.494Z,5.90
2023-04-10T09:55:03.632Z,5.47
2023-04-10T09:57:33.108Z,5.63
2023-04-10T10:00:04.097Z,8.75
2023-04-10T10:02:39.340Z,5.80
2023-04-10T10:05:09.114Z,5.20
2023-04-10T10:07:39.392Z,4.78
2023-04-10T10:10:09.185Z,5.05
2023-04-10T10:12:41.779Z,4.68
2023-04-10T10:15:14.964Z,6.40
2023-04-10T10:17:47.776Z,4.57
2023-04-10T10:20:19.085Z,4.65
2023-04-10T10:22:48.330Z,4.80
2023-04-10T10:25:16.949Z,4.80
2023-04-10T10:27:45.448Z,7.00
2023-04-10T10:30:28.195Z,5.22
2023-04-10T10:33:00.045Z,4.60
2023-04-10T10:35:29.926Z,5.80
2023-04-10T10:38:00.100Z,6.97
2023-04-10T10:40:32.367Z,4.27
2023-04-10T10:43:08.776Z,7.20
2023-04-10T10:45:41.990Z,5.30
2023-04-10T10:48:11.511Z,6.83
2023-04-10T10:50:53.588Z,5.13
2023-04-10T10:53:35.569Z,4.45
2023-04-10T10:56:34.598Z,4.43
2023-04-10T10:59:03.023Z,4.00
2023-04-10T11:01:31.077Z,4.35
2023-04-10T11:04:01.226Z,4.18
2023-04-10T11:06:52.600Z,4.40
2023-04-10T11:09:49.356Z,6.00
2023-04-10T11:12:17.779Z,5.13
2023-04-10T11:14:56.994Z,5.50
2023-04-10T11:17:50.626Z,4.70
2023-04-10T11:20:22.007Z,4.37
2023-04-10T11:23:11.065Z,4.30
2023-04-10T11:25:50.301Z,4.00
2023-04-10T11:28:42.250Z,5.38
2023-04-10T11:31:22.100Z,3.90
2023-04-10T11:33:52.106Z,3.70
2023-04-10T11:36:21.685Z,3.83
2023-04-10T11:38:59.928Z,3.75
2023-04-10T11:41:30.588Z,3.83
2023-04-10T11:43:59.151Z,4.53
2023-04-10T11:46:27.338Z,3.40
2023-04-10T11:48:56.725Z,3.60
2023-04-10T11:51:27.207Z,3.60
2023-04-10T11:54:06.413Z,3.80
2023-04-10T11:56:34.346Z,3.70
2023-04-10T11:59:07.253Z,3.42
2023-04-10T12:01:35.428Z,3.88
2023-04-10T12:04:03.703Z,3.72
2023-04-10T12:06:33.208Z,4.03
2023-04-10T12:09:01.176Z,3.67
2023-04-10T12:11:29.666Z,3.75
2023-04-10T12:13:58.858Z,3.92
2023-04-10T12:16:27.314Z,3.50
2023-04-10T12:18:55.886Z,3.80
2023-04-10T12:21:23.851Z,3.50
2023-04-10T12:23:53.115Z,3.40
2023-04-10T12:26:22.473Z,3.47
2023-04-10T12:28:54.960Z,3.42
2023-04-10T12:31:29.868Z,3.20
2023-04-10T12:33:58.450Z,3.70
2023-04-10T12:36:29.092Z,4.63
2023-04-10T12:38:58.614Z,3.67
2023-04-10T12:41:28.268Z,5.07
2023-04-10T12:44:08.817Z,3.83
2023-04-10T12:46:36.940Z,3.50
2023-04-10T12:49:12.649Z,3.30
2023-04-10T12:51:44.699Z,4.27
2023-04-10T12:54:28.323Z,3.50
2023-04-10T12:56:56.256Z,3.97
2023-04-10T12:59:24.719Z,4.00
2023-04-10T13:01:52.793Z,3.42
2023-04-10T13:04:20.900Z,2.67
2023-04-10T13:06:52.641Z,4.05
2023-04-10T13:09:22.248Z,2.75
2023-04-10T13:11:51.665Z,3.07
2023-04-10T13:14:19.912Z,2.90
2023-04-10T13:16:47.837Z,2.70
2023-04-10T13:19:15.788Z,3.03
2023-04-10T13:21:43.680Z,3.85
2023-04-10T13:24:11.575Z,3.33
2023-04-10T13:26:40.779Z,3.13
2023-04-10T13:29:08.676Z,3.88
2023-04-10T13:31:36.567Z,2.92
2023-04-10T13:34:04.470Z,3.83
2023-04-10T13:36:32.729Z,3.00
2023-04-10T13:39:00.789Z,5.00
2023-04-10T13:41:28.660Z,2.70
2023-04-10T13:43:57.843Z,3.00
2023-04-10T13:46:26.421Z,2.70
2023-04-10T13:48:54.359Z,3.10
2023-04-10T13:51:22.203Z,2.58
2023-04-10T13:53:50.056Z,4.57
2023-04-10T13:56:17.963Z,2.90
2023-04-10T13:58:46.942Z,2.60
2023-04-10T14:01:16.161Z,2.92
2023-04-10T14:03:44.205Z,2.60
2023-04-10T14:06:12.090Z,3.20
2023-04-10T14:08:40.014Z,2.60
2023-04-10T14:11:08.357Z,2.90
2023-04-10T14:13:36.255Z,2.92
2023-04-10T14:16:04.943Z,3.35
2023-04-10T14:18:34.187Z,3.33
2023-04-10T14:21:02.070Z,3.50
2023-04-10T14:23:29.965Z,2.95
2023-04-10T14:25:57.837Z,2.88
2023-04-10T14:28:25.730Z,2.85
2023-04-10T14:30:53.649Z,2.90
2023-04-10T14:33:21.837Z,3.00
2023-04-10T14:35:54.765Z,3.03
2023-04-10T14:38:22.758Z,3.67
2023-04-10T14:40:50.738Z,3.05
2023-04-10T14:43:19.532Z,2.70
2023-04-10T14:45:47.568Z,2.90
2023-04-10T14:48:15.718Z,3.17
2023-04-10T14:50:43.661Z,2.60
2023-04-10T14:53:12.900Z,2.60
2023-04-10T14:55:40.951Z,2.80
2023-04-10T14:58:11.046Z,3.40
2023-04-10T15:00:39.048Z,2.80
2023-04-10T15:03:08.588Z,3.00
2023-04-10T15:05:36.685Z,2.50
2023-04-10T15:08:04.729Z,2.83
2023-04-10T15:10:33.902Z,3.80
2023-04-10T15:13:01.816Z,2.67
2023-04-10T15:15:29.655Z,2.42
2023-04-10T15:17:57.518Z,2.40
2023-04-10T15:20:25.464Z,2.97
2023-04-10T15:22:53.361Z,3.75
2023-04-10T15:25:21.314Z,2.70
2023-04-10T15:27:50.600Z,3.10
2023-04-10T15:30:19.149Z,3.22
2023-04-10T15:32:47.076Z,3.35
2023-04-10T15:35:15.084Z,3.37
2023-04-10T15:37:43.036Z,2.80
2023-04-10T15:40:11.483Z,3.42
2023-04-10T15:42:39.656Z,5.55
2023-04-10T15:45:09.340Z,2.80
2023-04-10T15:47:37.290Z,3.03
2023-04-10T15:50:05.856Z,3.13
2023-04-10T15:52:33.904Z,2.90
2023-04-10T15:55:01.837Z,3.15
2023-04-10T15:57:29.780Z,3.20
2023-04-10T16:00:00.290Z,3.58
2023-04-10T16:02:29.827Z,3.22
2023-04-10T16:04:57.832Z,3.40
2023-04-10T16:07:25.772Z,3.50
2023-04-10T16:09:55.126Z,3.13
2023-04-10T16:12:23.043Z,3.45
2023-04-10T16:14:50.984Z,3.42
2023-04-10T16:17:18.899Z,3.40
2023-04-10T16:19:48.089Z,2.97
2023-04-10T16:22:15.926Z,3.30
2023-04-10T16:24:43.915Z,2.92
2023-04-10T16:27:11.771Z,3.10
2023-04-10T16:29:39.683Z,2.65
2023-04-10T16:32:07.631Z,3.08
2023-04-10T16:34:35.840Z,3.58
2023-04-10T16:37:05.116Z,3.42
2023-04-10T16:39:33.018Z,2.80
2023-04-10T16:42:01.370Z,2.97
2023-04-10T16:44:29.328Z,3.15
2023-04-10T16:46:57.477Z,2.97
2023-04-10T16:49:25.578Z,4.70
2023-04-10T16:51:53.509Z,3.13
2023-04-10T16:54:22.797Z,3.83
2023-04-10T16:56:50.988Z,3.25
2023-04-10T16:59:18.939Z,3.90
2023-04-10T17:01:47.138Z,4.00
2023-04-10T17:04:16.613Z,4.47
2023-04-10T17:06:44.562Z,4.18
2023-04-10T17:09:12.576Z,4.50
2023-04-10T17:11:41.812Z,3.58
2023-04-10T17:14:10.444Z,3.97
2023-04-10T17:16:38.343Z,4.63
2023-04-10T17:19:06.371Z,5.65
2023-04-10T17:21:35.001Z,5.18
2023-04-10T17:24:02.907Z,5.95
2023-04-10T17:26:31.704Z,6.70
2023-04-10T17:29:00.909Z,6.20
2023-04-10T17:31:29.633Z,7.35
2023-04-10T17:33:58.204Z,6.30
2023-04-10T17:36:26.697Z,6.70
2023-04-10T17:38:55.839Z,6.05
2023-04-10T17:41:24.100Z,6.32
2023-04-10T17:43:51.975Z,6.00
2023-04-10T17:46:23.190Z,6.75
2023-04-10T17:48:51.112Z,6.07
2023-04-10T17:51:19.022Z,6.00
2023-04-10T17:53:47.044Z,5.30
2023-04-10T17:56:21.034Z,4.80
2023-04-10T17:58:48.970Z,4.57
2023-04-10T18:01:24.320Z,4.18
2023-04-10T18:03:52.359Z,4.22
2023-04-10T18:06:20.359Z,3.97
2023-04-10T18:08:48.270Z,4.30
2023-04-10T18:11:16.281Z,3.85
2023-04-10T18:13:44.188Z,3.72
2023-04-10T18:16:12.192Z,2.88
2023-04-10T18:18:41.872Z,3.67
2023-04-10T18:21:10.437Z,2.85
2023-04-10T18:23:39.435Z,3.00
2023-04-10T18:26:07.834Z,2.35
2023-04-10T18:28:36.284Z,3.67
2023-04-10T18:31:04.225Z,3.55
2023-04-10T18:33:32.153Z,2.83
2023-04-10T18:36:01.468Z,3.13
2023-04-10T18:38:29.474Z,2.35
2023-04-10T18:40:57.943Z,1.98
2023-04-10T18:43:27.345Z,2.25
2023-04-10T18:45:55.761Z,2.38
2023-04-10T18:48:23.862Z,3.10
2023-04-10T18:50:53.757Z,3.38
2023-04-10T18:53:23.551Z,3.40
2023-04-10T18:55:52.662Z,3.70
2023-04-10T18:58:21.370Z,3.10
2023-04-10T19:00:49.666Z,3.20
2023-04-10T19:03:17.685Z,4.05
2023-04-10T19:05:45.950Z,3.30
2023-04-10T19:08:14.569Z,3.45
2023-04-10T19:10:44.111Z,3.42
2023-04-10T19:13:12.675Z,3.13
2023-04-10T19:15:42.528Z,3.03
2023-04-10T19:18:12.401Z,2.85
2023-04-10T19:20:52.201Z,2.88
2023-04-10T19:23:21.633Z,2.83
2023-04-10T19:25:54.319Z,3.58
2023-04-10T19:28:23.842Z,2.90
2023-04-10T19:30:51.764Z,2.75
2023-04-10T19:33:20.396Z,2.75
2023-04-10T19:35:48.350Z,4.53
2023-04-10T19:38:16.310Z,2.60
2023-04-10T19:40:45.255Z,3.43
2023-04-10T19:43:14.762Z,3.08
2023-04-10T19:45:42.678Z,3.55
2023-04-10T19:48:10.654Z,2.88
2023-04-10T19:50:38.541Z,3.90
2023-04-10T19:53:06.452Z,3.13
2023-04-10T19:55:34.392Z,3.95
2023-04-10T19:58:02.407Z,3.22
2023-04-10T20:00:31.714Z,4.85
2023-04-10T20:03:00.009Z,3.67
2023-04-10T20:05:28.148Z,3.53
2023-04-10T20:07:56.099Z,3.80
2023-04-10T20:10:24.207Z,2.97
2023-04-10T20:12:52.123Z,3.55
2023-04-10T20:15:21.182Z,3.60
2023-04-10T20:17:50.605Z,3.03
2023-04-10T20:20:18.589Z,3.60
2023-04-10T20:22:46.458Z,5.38
2023-04-10T20:25:14.398Z,4.03
2023-04-10T20:27:42.349Z,4.28
2023-04-10T20:30:10.956Z,6.13
2023-04-10T20:32:38.906Z,4.95
2023-04-10T20:35:09.457Z,4.38
2023-04-10T20:37:37.353Z,5.85
2023-04-10T20:40:06.118Z,6.82
2023-04-10T20:42:34.072Z,5.93
2023-04-10T20:45:02.106Z,9.27
2023-04-10T20:47:30.121Z,6.20
2023-04-10T20:49:58.046Z,5.80
2023-04-10T20:52:27.329Z,5.13
2023-04-10T20:54:55.286Z,5.50
2023-04-10T20:57:23.736Z,5.97
2023-04-10T20:59:51.636Z,5.50
2023-04-10T21:02:19.714Z,6.50
2023-04-10T21:04:47.753Z,5.18
2023-04-10T21:07:15.691Z,6.60
2023-04-10T21:09:45.674Z,6.70
2023-04-10T21:12:13.612Z,6.82
2023-04-10T21:14:41.457Z,5.78
2023-04-10T21:17:09.382Z,7.03
2023-04-10T21:19:37.238Z,6.45
2023-04-10T21:22:05.092Z,7.93
2023-04-10T21:24:32.982Z,6.40
2023-04-10T21:27:02.234Z,8.23
2023-04-10T21:29:30.525Z,8.60
2023-04-10T21:31:58.458Z,7.18
2023-04-10T21:34:26.435Z,8.82
2023-04-10T21:36:54.976Z,7.32
2023-04-10T21:39:22.852Z,8.25
2023-04-10T21:41:50.883Z,6.53
2023-04-10T21:44:20.945Z,5.70
2023-04-10T21:46:48.885Z,6.95
2023-04-10T21:49:16.789Z,10.68
2023-04-10T21:51:44.779Z,6.80
2023-04-10T21:54:12.693Z,8.50
2023-04-10T21:56:41.319Z,7.40
2023-04-10T21:59:09.168Z,7.87
2023-04-10T22:01:41.418Z,8.48
2023-04-10T22:04:09.630Z,8.43
2023-04-10T22:06:37.647Z,10.88
2023-04-10T22:09:05.626Z,6.40
2023-04-10T22:11:34.179Z,10.17
2023-04-10T22:14:09.325Z,8.68
2023-04-10T22:16:44.679Z,8.27
2023-04-10T22:19:12.631Z,9.98
2023-04-10T22:21:40.627Z,7.90
2023-04-10T22:24:09.042Z,7.72
2023-04-10T22:26:36.992Z,8.70
2023-04-10T22:29:05.152Z,10.57
2023-04-10T22:31:33.074Z,9.55
2023-04-10T22:34:02.309Z,11.10
2023-04-10T22:36:33.823Z,11.93
2023-04-10T22:39:01.703Z,12.30
2023-04-10T22:41:30.489Z,9.13
2023-04-10T22:43:58.356Z,9.67
2023-04-10T22:46:26.527Z,11.05
2023-04-10T22:48:55.223Z,11.48
2023-04-10T22:51:24.697Z,9.70
2023-04-10T22:53:52.520Z,10.45
2023-04-10T22:56:24.812Z,8.50
2023-04-10T22:58:53.196Z,11.45
2023-04-10T23:01:21.522Z,11.10
2023-04-10T23:03:52.700Z,11.60
2023-04-10T23:06:21.051Z,13.15
2023-04-10T23:08:50.270Z,10.17
2023-04-10T23:11:18.140Z,12.45
2023-04-10T23:13:46.030Z,11.50
2023-04-10T23:16:14.026Z,13.40
2023-04-10T23:18:42.390Z,13.45
2023-04-10T23:21:10.325Z,13.07
2023-04-10T23:23:38.210Z,12.27
2023-04-10T23:26:08.195Z,13.18
2023-04-10T23:28:36.035Z,14.00
2023-04-10T23:31:03.970Z,15.35
2023-04-10T23:33:31.938Z,15.05
2023-04-10T23:35:59.954Z,16.42
2023-04-10T23:38:27.822Z,14.98
2023-04-10T23:40:55.726Z,16.27
2023-04-10T23:43:25.001Z,15.18
2023-04-10T23:45:52.883Z,14.82
2023-04-10T23:48:20.746Z,21.00
2023-04-10T23:50:48.652Z,15.43
2023-04-10T23:53:16.505Z,18.05
2023-04-10T23:55:44.465Z,17.85
2023-04-10T23:58:12.330Z,17.20
